Time;durP1;ratioP1;P1;durP2;ratioP2;P2;SDS_P1;SDS_P2;PMS_P1;PMS_P2;Temp;Humidity;BMP_temperature;BMP_pressure;BME280_temperature;BME280_humidity;BME280_pressure;Samples;Min_cycle;Max_cycle;Signal;HPM_P1;HPM_P2
2023/06/09 00:00:06;;;;;;;1999.90;999.90;;;19.00;99.90;;;;;;5033418;28;20804;-67
2023/06/09 00:02:33;;;;;;;1999.90;999.90;;;19.00;99.90;;;;;;5033190;28;20661;-67
2023/06/09 00:04:59;;;;;;;1999.90;999.90;;;19.00;99.90;;;;;;5033481;28;20399;-67
2023/06/09 00:07:26;;;;;;;1999.90;999.90;;;19.00;99.90;;;;;;5033201;28;20421;-67
2023/06/09 00:09:52;;;;;;;1999.90;999.90;;;19.00;99.90;;;;;;5033336;28;20433;-68
2023/06/09 00:12:18;;;;;;;1999.90;999.90;;;19.00;99.90;;;;;;5033177;28;20407;-67
2023/06/09 00:14:43;;;;;;;1999.90;999.90;;;19.00;99.90;;;;;;5033266;28;20169;-68
2023/06/09 00:17:09;;;;;;;1999.90;999.90;;;19.00;99.90;;;;;;5032180;28;20262;-68
2023/06/09 00:19:41;;;;;;;1999.90;999.90;;;19.00;99.90;;;;;;5033028;28;20289;-68
2023/06/09 00:22:13;;;;;;;1999.90;999.90;;;18.90;99.90;;;;;;5032854;28;20228;-68
2023/06/09 00:24:39;;;;;;;1999.90;999.90;;;19.00;99.90;;;;;;5033047;28;20409;-68
2023/06/09 00:27:06;;;;;;;1999.90;999.90;;;18.90;99.90;;;;;;5032945;28;20932;-67
2023/06/09 00:29:32;;;;;;;1999.90;999.90;;;18.90;99.90;;;;;;5032991;28;20412;-67
2023/06/09 00:31:57;;;;;;;1999.90;999.90;;;18.90;99.90;;;;;;5032695;28;20453;-68
2023/06/09 00:34:23;;;;;;;1999.90;999.90;;;19.00;99.90;;;;;;5032908;28;20177;-68
2023/06/09 00:36:48;;;;;;;1999.90;999.90;;;19.00;99.90;;;;;;5032714;28;20197;-67
2023/06/09 00:39:14;;;;;;;1999.90;999.90;;;18.90;99.90;;;;;;5032638;28;20208;-67
2023/06/09 00:41:41;;;;;;;1999.90;999.90;;;18.90;99.90;;;;;;5032648;28;20643;-67
2023/06/09 00:44:07;;;;;;;1999.90;999.90;;;19.00;99.90;;;;;;5032838;28;20165;-67
2023/06/09 00:46:34;;;;;;;1999.90;999.90;;;18.90;99.90;;;;;;5032803;28;20451;-67
2023/06/09 00:49:00;;;;;;;1999.90;999.90;;;18.90;99.90;;;;;;5032689;28;20169;-68
2023/06/09 00:51:26;;;;;;;1999.90;999.90;;;18.90;99.90;;;;;;5032290;28;20406;-67
2023/06/09 00:53:52;;;;;;;1999.90;999.90;;;18.80;99.90;;;;;;5032589;28;20402;-68
2023/06/09 00:56:19;;;;;;;1999.90;999.90;;;18.70;99.90;;;;;;5035454;28;20911;-67
2023/06/09 00:58:45;;;;;;;1999.90;999.90;;;18.70;99.90;;;;;;5036973;28;20818;-67
2023/06/09 01:01:11;;;;;;;1999.90;999.90;;;18.60;99.90;;;;;;5037421;28;20408;-67
2023/06/09 01:03:38;;;;;;;1999.90;999.90;;;18.60;99.90;;;;;;5037140;28;20838;-67
2023/06/09 01:06:42;;;;;;;1999.90;999.90;;;18.60;99.90;;;;;;5036707;28;20191;-67
2023/06/09 01:09:25;;;;;;;1999.90;999.90;;;18.50;99.90;;;;;;5036083;28;20421;-67
2023/06/09 01:12:18;;;;;;;1999.90;999.90;;;18.50;99.90;;;;;;5036752;28;20913;-67
2023/06/09 01:14:57;;;;;;;1999.90;999.90;;;18.40;99.90;;;;;;5036974;28;20404;-67
2023/06/09 01:17:27;;;;;;;1999.90;999.90;;;18.30;99.90;;;;;;5037420;28;20397;-67
2023/06/09 01:19:57;;;;;;;1999.90;999.90;;;18.30;99.90;;;;;;5037108;28;20497;-67
2023/06/09 01:22:23;;;;;;;1999.90;999.90;;;18.20;99.90;;;;;;5036453;28;20931;-67
2023/06/09 01:25:06;;;;;;;1999.90;999.90;;;18.10;99.90;;;;;;5037363;28;20418;-67
2023/06/09 01:27:36;;;;;;;1999.90;999.90;;;18.00;99.90;;;;;;5037059;28;20188;-67
2023/06/09 01:30:03;;;;;;;1999.90;999.90;;;17.90;99.90;;;;;;5036702;28;20472;-67
2023/06/09 01:32:30;;;;;;;1999.90;999.90;;;17.80;99.90;;;;;;5036569;28;20409;-67
2023/06/09 01:34:56;;;;;;;1999.90;999.90;;;17.80;99.90;;;;;;5035963;28;20450;-67
2023/06/09 01:37:22;;;;;;;1999.90;999.90;;;17.80;99.90;;;;;;5035553;28;20441;-67
2023/06/09 01:39:50;;;;;;;1999.90;999.90;;;17.70;99.90;;;;;;5036165;28;20450;-67
2023/06/09 01:42:15;;;;;;;1999.90;999.90;;;17.70;99.90;;;;;;5035431;28;20239;-67
2023/06/09 01:44:41;;;;;;;1999.90;999.90;;;17.70;99.90;;;;;;5035689;28;20440;-67
2023/06/09 01:47:07;;;;;;;1999.90;999.90;;;17.70;99.90;;;;;;5035353;28;20924;-67
2023/06/09 01:49:47;;;;;;;1999.90;999.90;;;17.70;99.90;;;;;;5035453;28;20190;-67
2023/06/09 01:52:21;;;;;;;1999.90;999.90;;;17.70;99.90;;;;;;5034771;28;20217;-67
2023/06/09 01:55:00;;;;;;;1999.90;999.90;;;17.60;99.90;;;;;;5035339;28;20777;-67
2023/06/09 01:57:44;;;;;;;1999.90;999.90;;;17.60;99.90;;;;;;5035490;28;20431;-67
2023/06/09 02:00:11;;;;;;;1999.90;999.90;;;17.60;99.90;;;;;;5034912;28;20870;-67
2023/06/09 02:02:38;;;;;;;1999.90;999.90;;;17.60;99.90;;;;;;5032817;28;20407;-67
2023/06/09 02:05:06;;;;;;;1999.90;999.90;;;17.60;99.90;;;;;;5035843;28;20811;-67
2023/06/09 02:07:33;;;;;;;1999.90;999.90;;;17.50;99.90;;;;;;5035706;28;20957;-67
2023/06/09 02:09:59;;;;;;;1999.90;999.90;;;17.50;99.90;;;;;;5035656;28;20408;-67
2023/06/09 02:12:34;;;;;;;1999.90;999.90;;;17.50;99.90;;;;;;5035471;28;20903;-67
2023/06/09 02:15:00;;;;;;;1999.90;999.90;;;17.60;99.90;;;;;;5035588;28;20186;-67
2023/06/09 02:17:30;;;;;;;1999.90;999.90;;;17.50;99.90;;;;;;5032532;28;20445;-68
2023/06/09 02:19:56;;;;;;;1999.90;999.90;;;17.50;99.90;;;;;;5031477;28;20214;-67
2023/06/09 02:22:22;;;;;;;1999.90;999.90;;;17.50;99.90;;;;;;5031253;28;20410;-67
2023/06/09 02:24:47;;;;;;;1999.90;999.90;;;17.50;99.90;;;;;;5031632;28;20412;-67
2023/06/09 02:27:13;;;;;;;1999.90;999.90;;;17.50;99.90;;;;;;5031515;28;20670;-68
2023/06/09 02:29:38;;;;;;;1999.90;999.90;;;17.40;99.90;;;;;;5031446;28;20178;-67
2023/06/09 02:32:04;;;;;;;1999.90;999.90;;;17.50;99.90;;;;;;5031264;28;20183;-67
2023/06/09 02:34:31;;;;;;;1999.90;999.90;;;17.50;99.90;;;;;;5031694;28;20655;-67
2023/06/09 02:37:00;;;;;;;1999.90;999.90;;;17.50;99.90;;;;;;5031356;28;20441;-67
2023/06/09 02:39:26;;;;;;;1999.90;999.90;;;17.40;99.90;;;;;;5031400;28;20982;-67
2023/06/09 02:41:52;;;;;;;1999.90;999.90;;;17.30;99.90;;;;;;5033934;28;20420;-67
2023/06/09 02:44:18;;;;;;;1999.90;999.90;;;17.20;99.90;;;;;;5034945;28;20169;-68
2023/06/09 02:46:44;;;;;;;1999.90;999.90;;;17.20;99.90;;;;;;5034917;28;20197;-67
2023/06/09 02:49:10;;;;;;;1999.90;999.90;;;17.20;99.90;;;;;;5035010;28;20422;-68
2023/06/09 02:51:36;;;;;;;1999.90;999.90;;;17.20;99.90;;;;;;5034586;28;20884;-67
2023/06/09 02:54:03;;;;;;;1999.90;999.90;;;17.10;99.90;;;;;;5034783;28;20438;-67
2023/06/09 02:56:28;;;;;;;1999.90;999.90;;;17.10;99.90;;;;;;5034614;28;20959;-67
2023/06/09 02:58:54;;;;;;;1999.90;999.90;;;17.00;99.90;;;;;;5034512;28;20543;-67
2023/06/09 03:01:20;;;;;;;1999.90;999.90;;;16.90;99.90;;;;;;5034369;28;20176;-67
2023/06/09 03:03:49;;;;;;;1999.90;999.90;;;16.80;99.90;;;;;;5034652;28;20168;-68
2023/06/09 03:06:16;;;;;;;1999.90;999.90;;;16.70;99.90;;;;;;5034783;28;20428;-67
2023/06/09 03:08:43;;;;;;;1999.90;999.90;;;16.70;99.90;;;;;;5034461;28;20447;-67
2023/06/09 03:11:09;;;;;;;1999.90;999.90;;;16.70;99.90;;;;;;5034235;28;20399;-67
2023/06/09 03:13:35;;;;;;;1999.90;999.90;;;16.60;99.90;;;;;;5034634;28;20402;-67
2023/06/09 03:16:04;;;;;;;1999.90;999.90;;;16.60;99.90;;;;;;5034340;28;20791;-68
2023/06/09 03:18:30;;;;;;;1999.90;999.90;;;16.70;99.90;;;;;;5034260;28;20515;-68
2023/06/09 03:21:01;;;;;;;1999.90;999.90;;;16.60;99.90;;;;;;5034068;28;20423;-67
2023/06/09 03:23:28;;;;;;;1999.90;999.90;;;16.70;99.90;;;;;;5034317;28;20203;-67
2023/06/09 03:25:54;;;;;;;1999.90;999.90;;;16.60;99.90;;;;;;5034073;28;20407;-67
2023/06/09 03:28:20;;;;;;;1999.90;999.90;;;16.60;99.90;;;;;;5034193;28;21166;-68
2023/06/09 03:30:46;;;;;;;1999.90;999.90;;;16.50;99.90;;;;;;5034247;28;20197;-68
2023/06/09 03:33:11;;;;;;;1999.90;999.90;;;16.50;99.90;;;;;;5033948;28;20407;-67
2023/06/09 03:35:37;;;;;;;1999.90;999.90;;;16.50;99.90;;;;;;5034159;28;20404;-67
2023/06/09 03:38:03;;;;;;;1999.90;999.90;;;16.20;99.90;;;;;;5033885;28;20186;-68
2023/06/09 03:40:28;;;;;;;1999.90;999.90;;;16.10;99.90;;;;;;5033897;28;20183;-68
2023/06/09 03:42:54;;;;;;;1999.90;999.90;;;16.00;99.90;;;;;;5033594;28;20304;-67
2023/06/09 03:45:20;;;;;;;1999.90;999.90;;;16.00;99.90;;;;;;5033829;28;20180;-67
2023/06/09 03:47:45;;;;;;;1999.90;999.90;;;16.00;99.90;;;;;;5033717;28;20195;-67
2023/06/09 03:50:11;;;;;;;1999.90;999.90;;;16.00;99.90;;;;;;5033679;28;20167;-67
2023/06/09 03:52:36;;;;;;;1999.90;999.90;;;16.10;99.90;;;;;;5033111;28;20209;-67
2023/06/09 03:55:02;;;;;;;1999.90;999.90;;;16.10;99.90;;;;;;5033666;28;20237;-67
2023/06/09 03:57:28;;;;;;;1999.90;999.90;;;16.20;99.90;;;;;;5033685;28;20202;-67
2023/06/09 03:59:53;;;;;;;1999.90;999.90;;;16.20;99.90;;;;;;5033376;28;20207;-67
2023/06/09 04:02:19;;;;;;;1999.90;999.90;;;16.30;99.90;;;;;;5033179;28;20165;-67
2023/06/09 04:04:45;;;;;;;1999.90;999.90;;;16.30;99.90;;;;;;5033441;28;20178;-67
2023/06/09 04:07:11;;;;;;;1999.90;999.90;;;16.40;99.90;;;;;;5033357;28;20192;-67
2023/06/09 04:09:37;;;;;;;1999.90;999.90;;;16.40;99.90;;;;;;5033263;28;20173;-67
2023/06/09 04:12:03;;;;;;;1999.90;999.90;;;16.40;99.90;;;;;;5033185;28;20417;-67
2023/06/09 04:14:28;;;;;;;1999.90;999.90;;;16.50;99.90;;;;;;5033183;28;20180;-67
2023/06/09 04:16:54;;;;;;;1999.90;999.90;;;16.50;99.90;;;;;;5033172;28;20279;-67
2023/06/09 04:19:20;;;;;;;1999.90;999.90;;;16.60;99.90;;;;;;5033000;28;20213;-67
2023/06/09 04:21:46;;;;;;;1999.90;999.90;;;16.60;99.90;;;;;;5032836;28;20408;-67
2023/06/09 04:24:14;;;;;;;1999.90;999.90;;;16.70;99.90;;;;;;5033002;28;20298;-67
2023/06/09 04:26:40;;;;;;;1999.90;999.90;;;16.80;99.90;;;;;;5032851;28;20932;-67
2023/06/09 04:29:09;;;;;;;1999.90;999.90;;;16.80;99.90;;;;;;5033000;28;20407;-67
2023/06/09 04:31:37;;;;;;;1999.90;999.90;;;16.90;99.90;;;;;;5032554;28;20436;-67
2023/06/09 04:34:09;;;;;;;1999.90;999.90;;;17.00;99.90;;;;;;5032830;28;20408;-67
2023/06/09 04:36:35;;;;;;;1999.90;999.90;;;17.00;99.90;;;;;;5032692;28;20422;-67
2023/06/09 04:39:01;;;;;;;1999.90;999.90;;;17.00;99.90;;;;;;5032668;28;20446;-67
2023/06/09 04:41:26;;;;;;;1999.90;999.90;;;17.00;99.90;;;;;;5032459;28;20686;-67
2023/06/09 04:43:53;;;;;;;1999.90;999.90;;;17.10;99.90;;;;;;5032899;28;20175;-67
2023/06/09 04:46:24;;;;;;;1999.90;999.90;;;17.10;99.90;;;;;;5032526;28;20423;-67
2023/06/09 04:48:51;;;;;;;1999.90;999.90;;;17.10;99.90;;;;;;5032601;28;20502;-67
2023/06/09 04:51:17;;;;;;;1999.90;999.90;;;17.10;99.90;;;;;;5032284;28;20787;-68
2023/06/09 04:53:45;;;;;;;1999.90;999.90;;;17.20;99.90;;;;;;5032780;28;20405;-68
2023/06/09 04:56:15;;;;;;;1999.90;999.90;;;17.30;99.90;;;;;;5032670;28;20956;-67
2023/06/09 04:58:41;;;;;;;1999.90;999.90;;;17.30;99.90;;;;;;5032465;28;20425;-67
2023/06/09 05:01:07;;;;;;;1999.90;999.90;;;17.30;99.90;;;;;;5032156;28;20416;-67
2023/06/09 05:03:33;;;;;;;1999.90;999.90;;;17.30;99.90;;;;;;5031905;28;20234;-68
2023/06/09 05:05:59;;;;;;;1999.90;999.90;;;17.30;99.90;;;;;;5032379;28;20561;-67
2023/06/09 05:08:25;;;;;;;1999.90;999.90;;;17.30;99.90;;;;;;5032402;28;20399;-67
2023/06/09 05:10:52;;;;;;;1999.90;999.90;;;17.30;99.90;;;;;;5032294;28;20189;-67
2023/06/09 05:13:18;;;;;;;1999.90;999.90;;;17.40;99.90;;;;;;5032166;28;20673;-67
2023/06/09 05:15:43;;;;;;;1999.90;999.90;;;17.40;99.90;;;;;;5032167;28;20410;-67
2023/06/09 05:18:09;;;;;;;1999.90;999.90;;;17.40;99.90;;;;;;5032072;28;20431;-67
2023/06/09 05:20:35;;;;;;;1999.90;999.90;;;17.50;99.90;;;;;;5031947;28;20678;-67
2023/06/09 05:23:02;;;;;;;1999.90;999.90;;;17.60;99.90;;;;;;5032148;28;20169;-67
2023/06/09 05:25:28;;;;;;;1999.90;999.90;;;17.70;99.90;;;;;;5032237;28;20785;-67
2023/06/09 05:27:53;;;;;;;1999.90;999.90;;;17.70;99.90;;;;;;5032002;28;20426;-67
2023/06/09 05:30:19;;;;;;;1999.90;999.90;;;17.70;99.90;;;;;;5032085;28;20665;-69
2023/06/09 05:32:45;;;;;;;1999.90;999.90;;;17.70;99.90;;;;;;5031848;28;20181;-69
2023/06/09 05:35:10;;;;;;;1999.90;999.90;;;17.80;99.90;;;;;;5031952;28;20210;-69
2023/06/09 05:37:49;;;;;;;1999.90;999.90;;;17.90;99.90;;;;;;5031987;28;20187;-69
2023/06/09 05:40:15;;;;;;;1999.90;999.90;;;17.90;99.90;;;;;;5032019;28;20269;-69
2023/06/09 05:42:41;;;;;;;1999.90;999.90;;;18.00;99.90;;;;;;5031815;28;20405;-69
2023/06/09 05:45:07;;;;;;;1999.90;999.90;;;18.10;99.90;;;;;;5032003;28;20177;-67
2023/06/09 05:47:33;;;;;;;1999.90;999.90;;;18.10;99.90;;;;;;5031862;28;20200;-69
2023/06/09 05:49:59;;;;;;;1999.90;999.90;;;18.20;99.90;;;;;;5032028;28;20836;-69
2023/06/09 05:52:25;;;;;;;1999.90;999.90;;;18.30;99.90;;;;;;5031514;28;20963;-69
2023/06/09 05:54:51;;;;;;;1999.90;999.90;;;18.30;99.90;;;;;;5031789;28;20163;-69
2023/06/09 05:57:18;;;;;;;1999.90;999.90;;;18.30;99.90;;;;;;5031691;28;20437;-69
2023/06/09 05:59:44;;;;;;;1999.90;999.90;;;18.40;99.90;;;;;;5031115;28;20269;-67
2023/06/09 06:02:09;;;;;;;1999.90;999.90;;;18.40;99.90;;;;;;5030806;28;20493;-67
2023/06/09 06:04:35;;;;;;;1999.90;999.90;;;18.50;99.90;;;;;;5031716;28;20178;-67
2023/06/09 06:07:01;;;;;;;1999.90;999.90;;;18.50;99.90;;;;;;5031692;28;20200;-67
2023/06/09 06:09:26;;;;;;;1999.90;999.90;;;18.60;99.90;;;;;;5031647;28;20169;-67
2023/06/09 06:11:52;;;;;;;1999.90;999.90;;;18.60;99.90;;;;;;5031255;28;20824;-67
2023/06/09 06:14:17;;;;;;;1999.90;999.90;;;18.60;99.90;;;;;;5028716;28;20175;-67
2023/06/09 06:16:43;;;;;;;1999.90;999.90;;;18.70;99.90;;;;;;5024548;28;20195;-67
2023/06/09 06:19:11;;;;;;;1999.90;999.90;;;18.80;99.90;;;;;;5024547;28;20191;-67
2023/06/09 06:21:37;;;;;;;1999.90;999.90;;;18.90;99.90;;;;;;5021281;28;20237;-67
2023/06/09 06:24:03;;;;;;;1999.90;999.90;;;19.00;99.90;;;;;;5020543;28;20461;-67
2023/06/09 06:26:29;;;;;;;1999.90;999.90;;;19.10;99.90;;;;;;5023285;28;20451;-67
2023/06/09 06:28:55;;;;;;;1999.90;999.90;;;19.10;99.90;;;;;;5024840;28;20438;-67
2023/06/09 06:31:21;;;;;;;1999.90;999.90;;;19.20;99.90;;;;;;5032157;28;20255;-68
2023/06/09 06:33:46;;;;;;;1999.90;999.90;;;19.30;99.90;;;;;;5035172;28;20176;-67
2023/06/09 06:36:12;;;;;;;1999.90;999.90;;;19.30;99.90;;;;;;5035080;28;20430;-67
2023/06/09 06:38:37;;;;;;;1999.90;999.90;;;19.30;99.90;;;;;;5035105;28;20249;-68
2023/06/09 06:41:04;;;;;;;1999.90;999.90;;;19.40;99.90;;;;;;5034830;28;20256;-67
2023/06/09 06:43:30;;;;;;;1999.90;999.90;;;19.40;99.90;;;;;;5035051;28;20169;-67
2023/06/09 06:45:55;;;;;;;1999.90;999.90;;;19.40;99.90;;;;;;5025797;28;20913;-67
2023/06/09 06:48:21;;;;;;;1999.90;999.90;;;19.50;99.90;;;;;;5027008;28;20190;-67
2023/06/09 06:50:46;;;;;;;1999.90;999.90;;;19.60;99.90;;;;;;5026434;28;20180;-68
2023/06/09 06:53:12;;;;;;;1999.90;999.90;;;19.60;99.90;;;;;;5034540;28;20172;-67
2023/06/09 06:55:38;;;;;;;1999.90;999.90;;;19.70;99.90;;;;;;5034828;28;20178;-68
2023/06/09 06:58:03;;;;;;;1999.90;999.90;;;19.80;99.90;;;;;;5034585;28;20183;-67
2023/06/09 07:00:29;;;;;;;1999.90;999.90;;;20.00;99.90;;;;;;5034711;28;20790;-67
2023/06/09 07:02:56;;;;;;;1999.90;999.90;;;20.10;99.90;;;;;;5034305;28;20254;-67
2023/06/09 07:05:22;;;;;;;1999.90;999.90;;;20.20;99.90;;;;;;5034787;28;20670;-68
2023/06/09 07:07:48;;;;;;;1999.90;999.90;;;20.30;99.90;;;;;;5034478;28;20417;-67
2023/06/09 07:10:14;;;;;;;1999.90;999.90;;;20.40;99.90;;;;;;5034493;28;20698;-67
2023/06/09 07:12:41;;;;;;;1999.90;999.90;;;20.50;99.90;;;;;;5034113;28;20676;-68
2023/06/09 07:15:07;;;;;;;1999.90;999.90;;;20.60;99.90;;;;;;5034316;28;20402;-68
2023/06/09 07:17:33;;;;;;;1999.90;999.90;;;20.60;99.90;;;;;;5034309;28;20425;-67
2023/06/09 07:19:59;;;;;;;1999.90;999.90;;;20.80;99.90;;;;;;5034064;28;20543;-67
2023/06/09 07:22:25;;;;;;;1999.90;999.90;;;20.90;99.90;;;;;;5034021;28;20376;-68
2023/06/09 07:24:51;;;;;;;1999.90;999.90;;;21.00;99.90;;;;;;5034119;28;20412;-67
2023/06/09 07:27:17;;;;;;;1999.90;999.90;;;21.10;99.90;;;;;;5033502;28;20187;-68
2023/06/09 07:29:43;;;;;;;1999.90;999.90;;;21.20;99.90;;;;;;5034027;28;20535;-68
2023/06/09 07:32:09;;;;;;;1999.90;999.90;;;21.30;99.90;;;;;;5033737;28;20179;-68
2023/06/09 07:34:35;;;;;;;1999.90;999.90;;;21.40;99.90;;;;;;5034172;28;20419;-68
2023/06/09 07:37:04;;;;;;;1999.90;999.90;;;21.50;99.90;;;;;;5033878;28;20427;-68
2023/06/09 07:39:30;;;;;;;1999.90;999.90;;;21.60;99.90;;;;;;5033771;28;20207;-68
2023/06/09 07:41:56;;;;;;;1999.90;999.90;;;21.60;99.90;;;;;;5033510;28;20407;-68
2023/06/09 07:44:21;;;;;;;1999.90;999.90;;;21.70;99.90;;;;;;5032108;28;20940;-68
2023/06/09 07:46:47;;;;;;;1999.90;999.90;;;21.90;99.90;;;;;;5028790;28;20192;-68
2023/06/09 07:49:14;;;;;;;1999.90;999.90;;;22.00;99.90;;;;;;5029553;28;20175;-68
2023/06/09 07:51:41;;;;;;;1999.90;999.90;;;22.10;99.90;;;;;;5032348;28;20177;-67
2023/06/09 07:54:07;;;;;;;1999.90;999.90;;;22.10;99.90;;;;;;5028897;28;20426;-68
2023/06/09 07:56:36;;;;;;;1999.90;999.90;;;22.20;99.90;;;;;;5029078;28;20449;-68
2023/06/09 07:59:02;;;;;;;1999.90;999.90;;;22.30;99.90;;;;;;5028235;28;20207;-67
2023/06/09 08:01:29;;;;;;;1999.90;999.90;;;22.30;99.90;;;;;;5033043;28;20393;-67
2023/06/09 08:03:55;;;;;;;1999.90;999.90;;;22.50;99.90;;;;;;5035130;28;20415;-67
2023/06/09 08:06:21;;;;;;;1999.90;999.90;;;22.60;99.90;;;;;;5033508;28;20496;-67
2023/06/09 08:08:46;;;;;;;1999.90;999.90;;;22.70;99.90;;;;;;5033270;28;20459;-67
2023/06/09 08:11:12;;;;;;;1999.90;999.90;;;22.70;99.90;;;;;;5034092;28;20196;-68
2023/06/09 08:13:37;;;;;;;1999.90;999.90;;;22.80;99.90;;;;;;5032737;28;20176;-67
2023/06/09 08:16:03;;;;;;;1999.90;999.90;;;22.90;99.90;;;;;;5029829;28;20207;-68
2023/06/09 08:18:29;;;;;;;1999.90;999.90;;;22.90;99.90;;;;;;5028911;28;20198;-68
2023/06/09 08:20:55;;;;;;;1999.90;999.90;;;23.00;99.90;;;;;;5028094;28;20271;-68
2023/06/09 08:23:20;;;;;;;1999.90;999.90;;;23.10;99.90;;;;;;5014768;28;20205;-68
2023/06/09 08:25:46;;;;;;;1999.90;999.90;;;23.30;99.90;;;;;;5008704;28;20202;-69
2023/06/09 08:28:13;;;;;;;1999.90;999.90;;;23.40;99.90;;;;;;5008438;28;20173;-68
2023/06/09 08:30:39;;;;;;;1999.90;999.90;;;23.50;99.90;;;;;;5008645;28;20411;-68
2023/06/09 08:33:04;;;;;;;1999.90;999.90;;;23.60;99.90;;;;;;5008131;28;20420;-68
2023/06/09 08:35:33;;;;;;;1999.90;999.90;;;23.60;99.90;;;;;;5009142;28;20843;-68
2023/06/09 08:38:00;;;;;;;1999.90;999.90;;;23.70;99.90;;;;;;5007551;28;20411;-68
2023/06/09 08:40:25;;;;;;;1999.90;999.90;;;23.70;99.90;;;;;;5008130;28;20804;-68
2023/06/09 08:42:55;;;;;;;1999.90;999.90;;;23.80;99.90;;;;;;5031976;28;20402;-70
2023/06/09 08:45:22;;;;;;;1999.90;999.90;;;23.90;99.90;;;;;;5041938;28;20194;-68
2023/06/09 08:47:49;;;;;;;1999.90;999.90;;;24.00;99.90;;;;;;5046279;28;20937;-69
2023/06/09 08:50:18;;;;;;;1999.90;999.90;;;24.10;99.90;;;;;;5037802;28;20917;-68
2023/06/09 08:52:44;;;;;;;1999.90;999.90;;;24.20;99.90;;;;;;5023333;28;20925;-68
2023/06/09 08:55:12;;;;;;;1999.90;999.90;;;24.40;99.90;;;;;;5035249;28;20393;-69
2023/06/09 08:57:39;;;;;;;1999.90;999.90;;;24.40;99.90;;;;;;5032014;28;20427;-68
2023/06/09 09:00:09;;;;;;;1999.90;999.90;;;24.50;99.90;;;;;;5031353;28;20441;-68
2023/06/09 09:02:35;;;;;;;1999.90;999.90;;;24.60;99.90;;;;;;5038884;28;20744;-69
2023/06/09 09:05:01;;;;;;;1999.90;999.90;;;24.70;99.90;;;;;;5031849;28;20453;-69
2023/06/09 09:07:27;;;;;;;1999.90;999.90;;;24.70;99.90;;;;;;5031271;28;20203;-69
2023/06/09 09:09:54;;;;;;;1999.90;999.90;;;24.80;99.90;;;;;;5031885;28;20407;-69
2023/06/09 09:12:19;;;;;;;1999.90;999.90;;;24.90;99.90;;;;;;5031727;28;20473;-69
2023/06/09 09:14:45;;;;;;;1999.90;999.90;;;25.00;99.90;;;;;;5031524;28;20414;-68
2023/06/09 09:17:12;;;;;;;1999.90;999.90;;;25.10;99.90;;;;;;5031699;28;20199;-68
2023/06/09 09:19:41;;;;;;;1999.90;999.90;;;25.20;99.90;;;;;;5038060;28;20805;-69
2023/06/09 09:22:08;;;;;;;1999.90;999.90;;;25.20;99.90;;;;;;5030754;28;20407;-68
2023/06/09 09:24:35;;;;;;;1999.90;999.90;;;25.30;99.90;;;;;;5031954;28;20907;-69
2023/06/09 09:27:04;;;;;;;1999.90;999.90;;;25.40;99.90;;;;;;5031658;28;20397;-68
2023/06/09 09:29:39;;;;;;;1999.90;999.90;;;25.70;99.90;;;;;;5031422;28;20385;-69
2023/06/09 09:32:05;;;;;;;1999.90;999.90;;;25.70;99.90;;;;;;5031404;28;20445;-69
2023/06/09 09:34:31;;;;;;;1999.90;999.90;;;25.90;99.90;;;;;;5031581;28;20827;-69
2023/06/09 09:36:58;;;;;;;1999.90;999.90;;;25.90;99.90;;;;;;5030952;28;20199;-69
2023/06/09 09:39:24;;;;;;;1999.90;999.90;;;25.90;99.90;;;;;;5031471;28;20459;-69
2023/06/09 09:42:08;;;;;;;1999.90;999.90;;;26.00;99.90;;;;;;5031443;28;20743;-69
2023/06/09 09:44:39;;;;;;;1999.90;999.90;;;26.20;99.00;;;;;;5031365;28;20484;-69
2023/06/09 09:47:09;;;;;;;1999.90;999.90;;;26.20;97.50;;;;;;5031230;28;21022;-69
2023/06/09 09:49:35;;;;;;;1999.90;999.90;;;26.30;97.50;;;;;;5032333;28;20415;-69
2023/06/09 09:52:05;;;;;;;1999.90;999.90;;;26.30;97.90;;;;;;5034607;28;20819;-69
2023/06/09 09:54:30;;;;;;;1999.90;999.90;;;26.30;95.20;;;;;;5040723;28;20430;-69
2023/06/09 09:56:58;;;;;;;1999.90;999.90;;;26.40;96.00;;;;;;5035317;28;20802;-69
2023/06/09 09:59:25;;;;;;;1999.90;999.90;;;26.50;96.40;;;;;;5035101;28;20665;-69
2023/06/09 10:01:54;;;;;;;1999.90;999.90;;;26.80;96.10;;;;;;5034612;28;20425;-69
2023/06/09 10:04:23;;;;;;;1999.90;999.90;;;26.80;93.00;;;;;;5035212;28;20496;-70
2023/06/09 10:06:53;;;;;;;1999.90;999.90;;;26.80;93.30;;;;;;5034751;28;20536;-70
2023/06/09 10:09:23;;;;;;;1999.90;999.90;;;26.80;93.80;;;;;;5035021;28;20399;-70
2023/06/09 10:11:52;;;;;;;1999.90;999.90;;;26.80;91.90;;;;;;5034952;28;20442;-70
2023/06/09 10:14:20;;;;;;;1999.90;999.90;;;27.00;92.20;;;;;;5034866;28;20402;-69
2023/06/09 10:16:46;;;;;;;1999.90;999.90;;;27.20;92.90;;;;;;5035273;28;20425;-69
2023/06/09 10:19:12;;;;;;;1999.90;999.90;;;27.20;89.50;;;;;;5034911;28;20448;-68
2023/06/09 10:21:39;;;;;;;1999.90;999.90;;;27.20;90.90;;;;;;5034208;28;20438;-68
2023/06/09 10:24:06;;;;;;;1999.90;999.90;;;27.30;90.60;;;;;;5034927;28;20407;-68
2023/06/09 10:26:32;;;;;;;1999.90;999.90;;;27.50;91.80;;;;;;5035027;28;20426;-68
2023/06/09 10:28:57;;;;;;;1999.90;999.90;;;27.70;87.00;;;;;;5034285;28;20417;-69
2023/06/09 10:31:24;;;;;;;1999.90;999.90;;;27.70;82.00;;;;;;5034659;28;20176;-69
2023/06/09 10:33:53;;;;;;;1999.90;999.90;;;27.80;81.70;;;;;;5034622;28;20660;-68
2023/06/09 10:36:18;;;;;;;1999.90;999.90;;;27.90;81.50;;;;;;5033926;28;20446;-69
2023/06/09 10:38:47;;;;;;;1999.90;999.90;;;28.00;75.50;;;;;;5034607;28;20455;-68
2023/06/09 10:41:19;;;;;;;1999.90;999.90;;;28.00;75.10;;;;;;5034472;28;20585;-68
2023/06/09 10:44:01;;;;;;;1999.90;999.90;;;28.10;77.70;;;;;;5034356;28;20455;-69
2023/06/09 10:46:43;;;;;;;1999.90;999.90;;;28.20;76.30;;;;;;5034549;28;20423;-69
2023/06/09 10:49:35;;;;;;;1999.90;999.90;;;28.50;73.90;;;;;;5034257;28;20417;-68
2023/06/09 10:52:02;;;;;;;1999.90;999.90;;;28.70;69.70;;;;;;5033645;28;20897;-68
2023/06/09 10:54:30;;;;;;;1999.90;999.90;;;28.90;71.40;;;;;;5034358;28;20420;-68
2023/06/09 10:57:00;;;;;;;1999.90;999.90;;;29.10;68.20;;;;;;5034486;28;20509;-69
2023/06/09 10:59:26;;;;;;;1999.90;999.90;;;29.30;63.40;;;;;;5033658;28;20458;-69
2023/06/09 11:02:03;;;;;;;1999.90;999.90;;;29.50;64.00;;;;;;5036019;28;20415;-68
2023/06/09 11:04:38;;;;;;;1999.90;999.90;;;29.50;51.40;;;;;;5034221;28;20183;-69
2023/06/09 11:07:17;;;;;;;1999.90;999.90;;;29.60;53.90;;;;;;5033646;28;20426;-69
2023/06/09 11:09:49;;;;;;;1999.90;999.90;;;29.80;53.90;;;;;;5034046;28;20410;-68
2023/06/09 11:12:42;;;;;;;1999.90;999.90;;;29.90;51.00;;;;;;5033771;28;20762;-69
2023/06/09 11:15:10;;;;;;;1999.90;999.90;;;30.00;48.90;;;;;;5034331;28;20403;-68
2023/06/09 11:17:39;;;;;;;1999.90;999.90;;;30.10;49.60;;;;;;5033964;28;20427;-68
2023/06/09 11:22:34;;;;;;;1999.90;999.90;;;30.10;46.00;;;;;;5033945;28;20407;-69
2023/06/09 11:25:00;;;;;;;1999.90;999.90;;;30.30;46.80;;;;;;5033966;28;20927;-69
2023/06/09 11:27:26;;;;;;;1999.90;999.90;;;30.40;44.40;;;;;;5033382;28;20434;-69
2023/06/09 11:30:04;;;;;;;1999.90;999.90;;;30.60;42.60;;;;;;5033526;28;20411;-69
2023/06/09 11:32:49;;;;;;;1999.90;999.90;;;30.80;44.90;;;;;;5033403;28;20172;-69
2023/06/09 11:35:30;;;;;;;1999.90;999.90;;;30.90;39.60;;;;;;5033441;28;20917;-69
2023/06/09 11:37:58;;;;;;;1999.90;999.90;;;31.00;33.60;;;;;;5033504;28;20438;-68
2023/06/09 11:40:25;;;;;;;1999.90;999.90;;;31.00;34.30;;;;;;5033430;28;20463;-69
2023/06/09 11:42:51;;;;;;;1999.90;999.90;;;30.90;34.80;;;;;;5032793;28;20407;-69
2023/06/09 11:45:17;;;;;;;1999.90;999.90;;;30.90;35.10;;;;;;5033487;28;20411;-69
2023/06/09 11:47:44;;;;;;;1999.90;999.90;;;31.00;32.60;;;;;;5033321;28;20959;-69
2023/06/09 11:50:13;;;;;;;1999.90;999.90;;;31.20;30.00;;;;;;5032632;28;20179;-69
2023/06/09 11:52:41;;;;;;;1999.90;999.90;;;31.30;29.30;;;;;;5033295;28;20825;-69
2023/06/09 11:55:07;;;;;;;1999.90;999.90;;;31.40;23.60;;;;;;5033320;28;20407;-69
2023/06/09 11:57:34;;;;;;;1999.90;999.90;;;31.40;21.10;;;;;;5032729;28;20427;-68
2023/06/09 12:00:12;;;;;;;1999.90;999.90;;;31.40;22.30;;;;;;5033242;28;20859;-69
2023/06/09 12:02:47;;;;;;;1999.90;999.90;;;31.70;24.60;;;;;;5032929;28;20493;-69